sensor_id;sensor_type;location;lat;lon;timestamp;temperature;humidity
10010;DHT22;5044;48.652;9.250;2022-08-21T00:00:34;15.10;99.90
10010;DHT22;5044;48.652;9.250;2022-08-21T00:03:03;15.00;99.90
10010;DHT22;5044;48.652;9.250;2022-08-21T00:05:33;15.10;99.90
10010;DHT22;5044;48.652;9.250;2022-08-21T00:08:06;15.10;99.90
10010;DHT22;5044;48.652;9.250;2022-08-21T00:10:35;15.10;99.90
10010;DHT22;5044;48.652;9.250;2022-08-21T00:13:03;15.00;99.90
10010;DHT22;5044;48.652;9.250;2022-08-21T00:15:35;15.00;99.90
10010;DHT22;5044;48.652;9.250;2022-08-21T00:18:04;15.00;99.90
10010;DHT22;5044;48.652;9.250;2022-08-21T00:20:32;15.00;99.90
10010;DHT22;5044;48.652;9.250;2022-08-21T00:23:03;14.90;99.90
10010;DHT22;5044;48.652;9.250;2022-08-21T00:25:35;15.00;99.90
10010;DHT22;5044;48.652;9.250;2022-08-21T00:28:03;15.10;99.90
10010;DHT22;5044;48.652;9.250;2022-08-21T00:30:32;14.90;99.90
10010;DHT22;5044;48.652;9.250;2022-08-21T00:33:02;14.80;99.90
10010;DHT22;5044;48.652;9.250;2022-08-21T00:35:32;14.80;99.90
10010;DHT22;5044;48.652;9.250;2022-08-21T00:37:59;14.80;99.90
10010;DHT22;5044;48.652;9.250;2022-08-21T00:40:30;14.80;99.90
10010;DHT22;5044;48.652;9.250;2022-08-21T00:43:04;14.80;99.90
10010;DHT22;5044;48.652;9.250;2022-08-21T00:45:35;14.70;99.90
10010;DHT22;5044;48.652;9.250;2022-08-21T00:48:04;14.70;99.90
10010;DHT22;5044;48.652;9.250;2022-08-21T00:50:33;14.70;99.90
10010;DHT22;5044;48.652;9.250;2022-08-21T00:53:03;14.60;99.90
10010;DHT22;5044;48.652;9.250;2022-08-21T00:55:33;14.50;99.90
10010;DHT22;5044;48.652;9.250;2022-08-21T00:58:04;14.50;99.90
10010;DHT22;5044;48.652;9.250;2022-08-21T01:00:33;14.50;99.90
10010;DHT22;5044;48.652;9.250;2022-08-21T01:03:06;14.50;99.90
10010;DHT22;5044;48.652;9.250;2022-08-21T01:05:36;14.50;99.90
10010;DHT22;5044;48.652;9.250;2022-08-21T01:08:07;14.50;99.90
10010;DHT22;5044;48.652;9.250;2022-08-21T01:10:35;14.40;99.90
10010;DHT22;5044;48.652;9.250;2022-08-21T01:13:07;14.40;99.90
10010;DHT22;5044;48.652;9.250;2022-08-21T01:15:37;14.40;99.90
10010;DHT22;5044;48.652;9.250;2022-08-21T01:18:08;14.40;99.90
10010;DHT22;5044;48.652;9.250;2022-08-21T01:20:38;14.20;99.90
10010;DHT22;5044;48.652;9.250;2022-08-21T01:23:07;14.30;99.90
10010;DHT22;5044;48.652;9.250;2022-08-21T01:25:37;14.20;99.90
10010;DHT22;5044;48.652;9.250;2022-08-21T01:28:12;14.10;99.90
10010;DHT22;5044;48.652;9.250;2022-08-21T01:30:40;14.20;99.90
10010;DHT22;5044;48.652;9.250;2022-08-21T01:33:11;14.20;99.90
10010;DHT22;5044;48.652;9.250;2022-08-21T01:35:43;14.10;99.90
10010;DHT22;5044;48.652;9.250;2022-08-21T01:38:20;14.20;99.90
10010;DHT22;5044;48.652;9.250;2022-08-21T01:40:48;14.10;99.90
10010;DHT22;5044;48.652;9.250;2022-08-21T01:43:17;14.10;99.90
10010;DHT22;5044;48.652;9.250;2022-08-21T01:45:45;14.00;99.90
10010;DHT22;5044;48.652;9.250;2022-08-21T01:48:13;14.00;99.90
10010;DHT22;5044;48.652;9.250;2022-08-21T01:50:41;14.00;99.90
10010;DHT22;5044;48.652;9.250;2022-08-21T01:53:08;13.90;99.90
10010;DHT22;5044;48.652;9.250;2022-08-21T01:55:38;14.00;99.90
10010;DHT22;5044;48.652;9.250;2022-08-21T01:58:07;14.00;99.90
10010;DHT22;5044;48.652;9.250;2022-08-21T02:00:34;13.90;99.90
10010;DHT22;5044;48.652;9.250;2022-08-21T02:03:17;14.10;99.90
10010;DHT22;5044;48.652;9.250;2022-08-21T02:05:47;13.80;99.90
10010;DHT22;5044;48.652;9.250;2022-08-21T02:08:16;13.90;99.90
10010;DHT22;5044;48.652;9.250;2022-08-21T02:10:45;13.80;99.90
10010;DHT22;5044;48.652;9.250;2022-08-21T02:13:13;13.70;99.90
10010;DHT22;5044;48.652;9.250;2022-08-21T02:15:40;13.80;99.90
10010;DHT22;5044;48.652;9.250;2022-08-21T02:18:07;13.80;99.90
10010;DHT22;5044;48.652;9.250;2022-08-21T02:20:38;13.70;99.90
10010;DHT22;5044;48.652;9.250;2022-08-21T02:23:08;13.70;99.90
10010;DHT22;5044;48.652;9.250;2022-08-21T02:25:36;13.70;99.90
10010;DHT22;5044;48.652;9.250;2022-08-21T02:28:08;13.70;99.90
10010;DHT22;5044;48.652;9.250;2022-08-21T02:30:40;13.60;99.90
10010;DHT22;5044;48.652;9.250;2022-08-21T02:33:08;13.60;99.90
10010;DHT22;5044;48.652;9.250;2022-08-21T02:35:41;13.50;99.90
10010;DHT22;5044;48.652;9.250;2022-08-21T02:38:11;13.50;99.90
10010;DHT22;5044;48.652;9.250;2022-08-21T02:40:42;13.60;99.90
10010;DHT22;5044;48.652;9.250;2022-08-21T02:43:11;13.60;99.90
10010;DHT22;5044;48.652;9.250;2022-08-21T02:45:39;13.50;99.90
10010;DHT22;5044;48.652;9.250;2022-08-21T02:48:08;13.50;99.90
10010;DHT22;5044;48.652;9.250;2022-08-21T02:50:39;13.50;99.90
10010;DHT22;5044;48.652;9.250;2022-08-21T02:53:10;13.50;99.90
10010;DHT22;5044;48.652;9.250;2022-08-21T02:55:39;13.40;99.90
10010;DHT22;5044;48.652;9.250;2022-08-21T02:58:08;13.50;99.90
10010;DHT22;5044;48.652;9.250;2022-08-21T03:00:40;13.40;99.90
10010;DHT22;5044;48.652;9.250;2022-08-21T03:03:09;13.40;99.90
10010;DHT22;5044;48.652;9.250;2022-08-21T03:05:39;13.40;99.90
10010;DHT22;5044;48.652;9.250;2022-08-21T03:08:11;13.40;99.90
10010;DHT22;5044;48.652;9.250;2022-08-21T03:10:42;13.30;99.90
10010;DHT22;5044;48.652;9.250;2022-08-21T03:13:11;13.40;99.90
10010;DHT22;5044;48.652;9.250;2022-08-21T03:15:43;13.30;99.90
10010;DHT22;5044;48.652;9.250;2022-08-21T03:18:11;13.30;99.90
10010;DHT22;5044;48.652;9.250;2022-08-21T03:20:41;13.30;99.90
10010;DHT22;5044;48.652;9.250;2022-08-21T03:23:11;13.30;99.90
10010;DHT22;5044;48.652;9.250;2022-08-21T03:25:40;13.30;99.90
10010;DHT22;5044;48.652;9.250;2022-08-21T03:28:09;13.30;99.90
10010;DHT22;5044;48.652;9.250;2022-08-21T03:30:37;13.30;99.90
10010;DHT22;5044;48.652;9.250;2022-08-21T03:33:06;13.20;99.90
10010;DHT22;5044;48.652;9.250;2022-08-21T03:35:34;13.20;99.90
10010;DHT22;5044;48.652;9.250;2022-08-21T03:38:02;13.20;99.90
10010;DHT22;5044;48.652;9.250;2022-08-21T03:40:30;13.20;99.90
10010;DHT22;5044;48.652;9.250;2022-08-21T03:43:00;13.10;99.90
10010;DHT22;5044;48.652;9.250;2022-08-21T03:45:29;13.10;99.90
10010;DHT22;5044;48.652;9.250;2022-08-21T03:47:58;13.10;99.90
10010;DHT22;5044;48.652;9.250;2022-08-21T03:50:30;13.10;99.90
10010;DHT22;5044;48.652;9.250;2022-08-21T03:53:00;13.10;99.90
10010;DHT22;5044;48.652;9.250;2022-08-21T03:55:32;13.10;99.90
10010;DHT22;5044;48.652;9.250;2022-08-21T03:58:01;13.10;99.90
10010;DHT22;5044;48.652;9.250;2022-08-21T04:00:31;13.10;99.90
10010;DHT22;5044;48.652;9.250;2022-08-21T04:02:58;13.10;99.90
10010;DHT22;5044;48.652;9.250;2022-08-21T04:05:26;13.00;99.90
10010;DHT22;5044;48.652;9.250;2022-08-21T04:08:04;13.00;99.90
10010;DHT22;5044;48.652;9.250;2022-08-21T04:10:34;13.00;99.90
10010;DHT22;5044;48.652;9.250;2022-08-21T04:13:05;13.00;99.90
10010;DHT22;5044;48.652;9.250;2022-08-21T04:15:34;13.00;99.90
10010;DHT22;5044;48.652;9.250;2022-08-21T04:18:02;13.10;99.90
10010;DHT22;5044;48.652;9.250;2022-08-21T04:20:30;12.90;99.90
10010;DHT22;5044;48.652;9.250;2022-08-21T04:22:59;12.90;99.90
10010;DHT22;5044;48.652;9.250;2022-08-21T04:25:26;12.90;99.90
10010;DHT22;5044;48.652;9.250;2022-08-21T04:27:56;12.90;99.90
10010;DHT22;5044;48.652;9.250;2022-08-21T04:30:25;12.80;99.90
10010;DHT22;5044;48.652;9.250;2022-08-21T04:32:53;12.80;99.90
10010;DHT22;5044;48.652;9.250;2022-08-21T04:35:22;13.00;99.90
10010;DHT22;5044;48.652;9.250;2022-08-21T04:37:50;12.80;99.90
10010;DHT22;5044;48.652;9.250;2022-08-21T04:40:30;12.70;99.90
10010;DHT22;5044;48.652;9.250;2022-08-21T04:43:01;12.80;99.90
10010;DHT22;5044;48.652;9.250;2022-08-21T04:45:31;12.80;99.90
10010;DHT22;5044;48.652;9.250;2022-08-21T04:47:59;12.70;99.90
10010;DHT22;5044;48.652;9.250;2022-08-21T04:50:30;12.90;99.90
10010;DHT22;5044;48.652;9.250;2022-08-21T04:52:58;12.80;99.90
10010;DHT22;5044;48.652;9.250;2022-08-21T04:55:31;12.80;99.90
10010;DHT22;5044;48.652;9.250;2022-08-21T04:57:59;12.70;99.90
10010;DHT22;5044;48.652;9.250;2022-08-21T05:00:26;12.70;99.90
10010;DHT22;5044;48.652;9.250;2022-08-21T05:02:57;12.70;99.90
10010;DHT22;5044;48.652;9.250;2022-08-21T05:05:28;12.70;99.90
10010;DHT22;5044;48.652;9.250;2022-08-21T05:07:56;12.70;99.90
10010;DHT22;5044;48.652;9.250;2022-08-21T05:10:23;12.70;99.90
10010;DHT22;5044;48.652;9.250;2022-08-21T05:12:57;12.60;99.90
10010;DHT22;5044;48.652;9.250;2022-08-21T05:15:24;12.70;99.90
10010;DHT22;5044;48.652;9.250;2022-08-21T05:17:59;12.70;99.90
10010;DHT22;5044;48.652;9.250;2022-08-21T05:20:27;12.80;99.90
10010;DHT22;5044;48.652;9.250;2022-08-21T05:22:55;12.70;99.90
10010;DHT22;5044;48.652;9.250;2022-08-21T05:25:23;12.70;99.90
10010;DHT22;5044;48.652;9.250;2022-08-21T05:27:53;12.70;99.90
10010;DHT22;5044;48.652;9.250;2022-08-21T05:30:22;12.70;99.90
10010;DHT22;5044;48.652;9.250;2022-08-21T05:32:56;12.80;99.90
10010;DHT22;5044;48.652;9.250;2022-08-21T05:35:23;12.80;99.90
10010;DHT22;5044;48.652;9.250;2022-08-21T05:37:50;12.90;99.90
10010;DHT22;5044;48.652;9.250;2022-08-21T05:40:17;13.30;99.90
10010;DHT22;5044;48.652;9.250;2022-08-21T05:42:46;13.10;99.90
10010;DHT22;5044;48.652;9.250;2022-08-21T05:45:16;13.40;99.90
10010;DHT22;5044;48.652;9.250;2022-08-21T05:47:45;13.60;99.90
10010;DHT22;5044;48.652;9.250;2022-08-21T05:50:12;13.80;99.90
10010;DHT22;5044;48.652;9.250;2022-08-21T05:52:39;13.90;99.90
10010;DHT22;5044;48.652;9.250;2022-08-21T05:55:21;14.10;99.90
10010;DHT22;5044;48.652;9.250;2022-08-21T05:57:48;14.30;99.90
10010;DHT22;5044;48.652;9.250;2022-08-21T06:00:18;14.40;99.90
10010;DHT22;5044;48.652;9.250;2022-08-21T06:02:50;14.60;99.90
10010;DHT22;5044;48.652;9.250;2022-08-21T06:05:17;14.70;99.90
10010;DHT22;5044;48.652;9.250;2022-08-21T06:07:45;14.80;99.90
10010;DHT22;5044;48.652;9.250;2022-08-21T06:10:13;15.00;99.90
10010;DHT22;5044;48.652;9.250;2022-08-21T06:12:44;15.40;99.90
10010;DHT22;5044;48.652;9.250;2022-08-21T06:15:12;15.40;99.90
10010;DHT22;5044;48.652;9.250;2022-08-21T06:17:41;15.60;99.90
10010;DHT22;5044;48.652;9.250;2022-08-21T06:20:13;15.70;99.90
10010;DHT22;5044;48.652;9.250;2022-08-21T06:22:43;15.90;99.90
10010;DHT22;5044;48.652;9.250;2022-08-21T06:25:16;16.00;99.90
10010;DHT22;5044;48.652;9.250;2022-08-21T06:27:46;16.20;99.90
10010;DHT22;5044;48.652;9.250;2022-08-21T06:30:20;16.40;99.90
10010;DHT22;5044;48.652;9.250;2022-08-21T06:32:52;16.60;99.90
10010;DHT22;5044;48.652;9.250;2022-08-21T06:35:18;16.80;99.90
10010;DHT22;5044;48.652;9.250;2022-08-21T06:37:51;16.90;99.90
10010;DHT22;5044;48.652;9.250;2022-08-21T06:40:21;17.10;99.90
10010;DHT22;5044;48.652;9.250;2022-08-21T06:42:48;17.30;99.90
10010;DHT22;5044;48.652;9.250;2022-08-21T06:45:29;17.50;99.90
10010;DHT22;5044;48.652;9.250;2022-08-21T06:48:00;17.60;99.90
10010;DHT22;5044;48.652;9.250;2022-08-21T06:50:29;17.80;99.90
10010;DHT22;5044;48.652;9.250;2022-08-21T06:53:02;18.00;99.90
10010;DHT22;5044;48.652;9.250;2022-08-21T06:55:30;18.10;99.90
10010;DHT22;5044;48.652;9.250;2022-08-21T06:57:58;18.20;99.90
10010;DHT22;5044;48.652;9.250;2022-08-21T07:00:25;18.40;99.90
10010;DHT22;5044;48.652;9.250;2022-08-21T07:02:54;18.60;99.90
10010;DHT22;5044;48.652;9.250;2022-08-21T07:05:26;18.80;99.90
10010;DHT22;5044;48.652;9.250;2022-08-21T07:07:54;19.00;99.90
10010;DHT22;5044;48.652;9.250;2022-08-21T07:10:22;19.10;99.90
10010;DHT22;5044;48.652;9.250;2022-08-21T07:12:50;19.20;99.90
10010;DHT22;5044;48.652;9.250;2022-08-21T07:15:18;19.40;99.90
10010;DHT22;5044;48.652;9.250;2022-08-21T07:17:45;19.50;99.90
10010;DHT22;5044;48.652;9.250;2022-08-21T07:20:12;19.60;99.90
10010;DHT22;5044;48.652;9.250;2022-08-21T07:22:41;19.80;99.90
10010;DHT22;5044;48.652;9.250;2022-08-21T07:25:09;19.90;99.90
10010;DHT22;5044;48.652;9.250;2022-08-21T07:27:36;20.10;99.90
10010;DHT22;5044;48.652;9.250;2022-08-21T07:30:04;20.20;99.90
10010;DHT22;5044;48.652;9.250;2022-08-21T07:32:32;20.40;99.90
10010;DHT22;5044;48.652;9.250;2022-08-21T07:34:59;20.50;99.90
10010;DHT22;5044;48.652;9.250;2022-08-21T07:37:26;20.60;99.90
10010;DHT22;5044;48.652;9.250;2022-08-21T07:39:54;20.80;99.90
10010;DHT22;5044;48.652;9.250;2022-08-21T07:42:21;20.90;99.90
10010;DHT22;5044;48.652;9.250;2022-08-21T07:44:48;21.10;99.90
10010;DHT22;5044;48.652;9.250;2022-08-21T07:47:15;21.20;99.90
10010;DHT22;5044;48.652;9.250;2022-08-21T07:49:43;21.40;99.90
10010;DHT22;5044;48.652;9.250;2022-08-21T07:52:11;21.60;99.90
10010;DHT22;5044;48.652;9.250;2022-08-21T07:54:38;21.80;99.90
10010;DHT22;5044;48.652;9.250;2022-08-21T07:57:07;21.90;99.90
10010;DHT22;5044;48.652;9.250;2022-08-21T07:59:34;21.90;99.90
10010;DHT22;5044;48.652;9.250;2022-08-21T08:02:01;22.10;99.90
10010;DHT22;5044;48.652;9.250;2022-08-21T08:04:28;22.00;97.40
10010;DHT22;5044;48.652;9.250;2022-08-21T08:06:55;22.10;99.90
10010;DHT22;5044;48.652;9.250;2022-08-21T08:09:22;22.30;99.90
10010;DHT22;5044;48.652;9.250;2022-08-21T08:11:49;22.50;99.70
10010;DHT22;5044;48.652;9.250;2022-08-21T08:14:18;22.80;99.40
10010;DHT22;5044;48.652;9.250;2022-08-21T08:16:45;22.80;97.90
10010;DHT22;5044;48.652;9.250;2022-08-21T08:19:11;23.00;98.30
10010;DHT22;5044;48.652;9.250;2022-08-21T08:21:38;23.20;98.10
10010;DHT22;5044;48.652;9.250;2022-08-21T08:24:06;23.50;97.30
10010;DHT22;5044;48.652;9.250;2022-08-21T08:26:32;23.70;97.20
10010;DHT22;5044;48.652;9.250;2022-08-21T08:28:59;23.90;96.20
10010;DHT22;5044;48.652;9.250;2022-08-21T08:31:28;24.00;94.60
10010;DHT22;5044;48.652;9.250;2022-08-21T08:33:54;24.10;95.30
10010;DHT22;5044;48.652;9.250;2022-08-21T08:36:31;24.30;94.90
10010;DHT22;5044;48.652;9.250;2022-08-21T08:38:58;24.50;94.40
10010;DHT22;5044;48.652;9.250;2022-08-21T08:41:26;24.60;92.20
10010;DHT22;5044;48.652;9.250;2022-08-21T08:43:55;24.60;93.30
10010;DHT22;5044;48.652;9.250;2022-08-21T08:46:30;24.80;93.90
10010;DHT22;5044;48.652;9.250;2022-08-21T08:49:02;25.10;93.10
10010;DHT22;5044;48.652;9.250;2022-08-21T08:51:41;25.30;92.30
10010;DHT22;5044;48.652;9.250;2022-08-21T08:54:13;25.50;92.20
10010;DHT22;5044;48.652;9.250;2022-08-21T08:56:40;25.40;82.60
10010;DHT22;5044;48.652;9.250;2022-08-21T08:59:13;25.60;90.50
10010;DHT22;5044;48.652;9.250;2022-08-21T09:01:43;25.90;90.50
10010;DHT22;5044;48.652;9.250;2022-08-21T09:04:12;26.00;91.70
10010;DHT22;5044;48.652;9.250;2022-08-21T09:06:53;26.20;89.50
10010;DHT22;5044;48.652;9.250;2022-08-21T09:09:31;26.40;83.60
10010;DHT22;5044;48.652;9.250;2022-08-21T09:12:03;26.40;85.80
10010;DHT22;5044;48.652;9.250;2022-08-21T09:14:36;26.60;84.10
10010;DHT22;5044;48.652;9.250;2022-08-21T09:17:17;26.70;87.40
10010;DHT22;5044;48.652;9.250;2022-08-21T09:19:58;26.60;87.00
10010;DHT22;5044;48.652;9.250;2022-08-21T09:22:39;26.80;78.60
10010;DHT22;5044;48.652;9.250;2022-08-21T09:25:12;27.10;78.40
10010;DHT22;5044;48.652;9.250;2022-08-21T09:27:42;27.30;82.10
10010;DHT22;5044;48.652;9.250;2022-08-21T09:30:10;27.30;80.70
10010;DHT22;5044;48.652;9.250;2022-08-21T09:32:39;27.30;79.10
10010;DHT22;5044;48.652;9.250;2022-08-21T09:35:09;27.20;79.30
10010;DHT22;5044;48.652;9.250;2022-08-21T09:37:48;27.50;72.00
10010;DHT22;5044;48.652;9.250;2022-08-21T09:40:29;27.40;74.10
10010;DHT22;5044;48.652;9.250;2022-08-21T09:42:59;27.80;78.40
10010;DHT22;5044;48.652;9.250;2022-08-21T09:45:27;27.90;61.80
10010;DHT22;5044;48.652;9.250;2022-08-21T09:47:55;27.90;69.80
10010;DHT22;5044;48.652;9.250;2022-08-21T09:50:25;27.80;70.70
10010;DHT22;5044;48.652;9.250;2022-08-21T09:52:55;27.80;62.70
10010;DHT22;5044;48.652;9.250;2022-08-21T09:55:31;28.30;76.10
10010;DHT22;5044;48.652;9.250;2022-08-21T09:58:17;28.50;68.70
10010;DHT22;5044;48.652;9.250;2022-08-21T10:00:44;28.40;57.10
10010;DHT22;5044;48.652;9.250;2022-08-21T10:03:19;28.50;61.50
10010;DHT22;5044;48.652;9.250;2022-08-21T10:05:53;28.70;64.70
10010;DHT22;5044;48.652;9.250;2022-08-21T10:08:22;29.10;70.80
10010;DHT22;5044;48.652;9.250;2022-08-21T10:10:52;29.30;68.30
10010;DHT22;5044;48.652;9.250;2022-08-21T10:13:27;29.50;60.30
10010;DHT22;5044;48.652;9.250;2022-08-21T10:16:08;29.30;62.40
10010;DHT22;5044;48.652;9.250;2022-08-21T10:18:50;29.60;58.70
10010;DHT22;5044;48.652;9.250;2022-08-21T10:21:26;29.50;58.40
10010;DHT22;5044;48.652;9.250;2022-08-21T10:24:02;29.70;61.40
10010;DHT22;5044;48.652;9.250;2022-08-21T10:26:43;29.60;61.30
10010;DHT22;5044;48.652;9.250;2022-08-21T10:29:23;29.90;61.00
10010;DHT22;5044;48.652;9.250;2022-08-21T10:31:56;30.00;60.30
10010;DHT22;5044;48.652;9.250;2022-08-21T10:34:38;30.10;62.30
10010;DHT22;5044;48.652;9.250;2022-08-21T10:37:25;30.10;58.90
10010;DHT22;5044;48.652;9.250;2022-08-21T10:40:06;30.20;59.50
10010;DHT22;5044;48.652;9.250;2022-08-21T10:42:39;30.30;59.80
10010;DHT22;5044;48.652;9.250;2022-08-21T10:45:14;30.30;58.20
10010;DHT22;5044;48.652;9.250;2022-08-21T10:47:46;30.10;56.60
10010;DHT22;5044;48.652;9.250;2022-08-21T10:50:26;30.10;57.50
10010;DHT22;5044;48.652;9.250;2022-08-21T10:53:15;30.30;55.80
10010;DHT22;5044;48.652;9.250;2022-08-21T10:55:46;30.50;54.60
10010;DHT22;5044;48.652;9.250;2022-08-21T10:58:19;30.30;55.00
10010;DHT22;5044;48.652;9.250;2022-08-21T11:01:00;30.30;55.30
10010;DHT22;5044;48.652;9.250;2022-08-21T11:03:33;29.90;50.40
10010;DHT22;5044;48.652;9.250;2022-08-21T11:06:10;30.20;55.00
10010;DHT22;5044;48.652;9.250;2022-08-21T11:08:39;30.40;53.00
10010;DHT22;5044;48.652;9.250;2022-08-21T11:11:13;30.70;54.80
10010;DHT22;5044;48.652;9.250;2022-08-21T11:13:44;30.60;53.00
10010;DHT22;5044;48.652;9.250;2022-08-21T11:16:23;30.10;48.40
10010;DHT22;5044;48.652;9.250;2022-08-21T11:18:57;30.30;53.40
10010;DHT22;5044;48.652;9.250;2022-08-21T11:21:35;30.70;53.80
10010;DHT22;5044;48.652;9.250;2022-08-21T11:24:15;30.70;52.20
10010;DHT22;5044;48.652;9.250;2022-08-21T11:26:47;30.90;51.50
10010;DHT22;5044;48.652;9.250;2022-08-21T11:29:22;30.70;51.50
10010;DHT22;5044;48.652;9.250;2022-08-21T11:32:01;30.80;51.10
10010;DHT22;5044;48.652;9.250;2022-08-21T11:34:41;30.10;50.10
10010;DHT22;5044;48.652;9.250;2022-08-21T11:37:19;30.90;54.70
10010;DHT22;5044;48.652;9.250;2022-08-21T11:39:53;30.90;50.80
10010;DHT22;5044;48.652;9.250;2022-08-21T11:42:29;30.80;50.50
10010;DHT22;5044;48.652;9.250;2022-08-21T11:45:13;31.00;51.90
10010;DHT22;5044;48.652;9.250;2022-08-21T11:47:53;30.90;50.20
10010;DHT22;5044;48.652;9.250;2022-08-21T11:50:26;31.20;51.40
10010;DHT22;5044;48.652;9.250;2022-08-21T11:53:01;31.30;51.10
10010;DHT22;5044;48.652;9.250;2022-08-21T11:55:33;31.20;49.20
10010;DHT22;5044;48.652;9.250;2022-08-21T11:58:06;31.10;49.40
10010;DHT22;5044;48.652;9.250;2022-08-21T12:00:38;31.20;48.60
10010;DHT22;5044;48.652;9.250;2022-08-21T12:03:09;31.30;47.90
10010;DHT22;5044;48.652;9.250;2022-08-21T12:05:41;30.70;46.00
10010;DHT22;5044;48.652;9.250;2022-08-21T12:08:13;30.60;45.60
10010;DHT22;5044;48.652;9.250;2022-08-21T12:10:42;30.40;44.40
10010;DHT22;5044;48.652;9.250;2022-08-21T12:13:25;30.50;44.40
10010;DHT22;5044;48.652;9.250;2022-08-21T12:15:52;30.30;45.30
10010;DHT22;5044;48.652;9.250;2022-08-21T12:18:28;31.20;49.00
10010;DHT22;5044;48.652;9.250;2022-08-21T12:21:05;31.40;47.10
10010;DHT22;5044;48.652;9.250;2022-08-21T12:23:48;31.60;48.30
10010;DHT22;5044;48.652;9.250;2022-08-21T12:26:24;32.00;49.80
10010;DHT22;5044;48.652;9.250;2022-08-21T12:29:04;32.00;47.10
10010;DHT22;5044;48.652;9.250;2022-08-21T12:31:32;32.10;48.60
10010;DHT22;5044;48.652;9.250;2022-08-21T12:34:02;32.10;48.00
10010;DHT22;5044;48.652;9.250;2022-08-21T12:36:42;32.40;49.10
10010;DHT22;5044;48.652;9.250;2022-08-21T12:39:22;32.50;48.10
10010;DHT22;5044;48.652;9.250;2022-08-21T12:41:53;32.20;43.80
10010;DHT22;5044;48.652;9.250;2022-08-21T12:44:28;32.30;45.80
10010;DHT22;5044;48.652;9.250;2022-08-21T12:47:05;32.40;46.90
10010;DHT22;5044;48.652;9.250;2022-08-21T12:49:36;32.40;47.60
10010;DHT22;5044;48.652;9.250;2022-08-21T12:52:16;32.20;45.90
10010;DHT22;5044;48.652;9.250;2022-08-21T12:54:47;32.10;44.60
10010;DHT22;5044;48.652;9.250;2022-08-21T12:57:20;32.10;46.40
10010;DHT22;5044;48.652;9.250;2022-08-21T12:59:52;32.30;46.90
10010;DHT22;5044;48.652;9.250;2022-08-21T13:02:22;32.20;45.20
10010;DHT22;5044;48.652;9.250;2022-08-21T13:04:51;32.20;44.80
10010;DHT22;5044;48.652;9.250;2022-08-21T13:07:25;32.10;45.80
10010;DHT22;5044;48.652;9.250;2022-08-21T13:09:57;32.30;46.60
10010;DHT22;5044;48.652;9.250;2022-08-21T13:12:25;32.10;42.60
10010;DHT22;5044;48.652;9.250;2022-08-21T13:14:56;31.70;40.70
10010;DHT22;5044;48.652;9.250;2022-08-21T13:17:25;31.90;42.50
10010;DHT22;5044;48.652;9.250;2022-08-21T13:19:54;32.00;39.70
10010;DHT22;5044;48.652;9.250;2022-08-21T13:22:21;31.90;37.80
10010;DHT22;5044;48.652;9.250;2022-08-21T13:24:48;31.60;36.20
10010;DHT22;5044;48.652;9.250;2022-08-21T13:27:23;31.70;38.50
10010;DHT22;5044;48.652;9.250;2022-08-21T13:30:02;32.30;41.00
10010;DHT22;5044;48.652;9.250;2022-08-21T13:32:31;31.80;38.70
10010;DHT22;5044;48.652;9.250;2022-08-21T13:35:11;31.30;38.30
10010;DHT22;5044;48.652;9.250;2022-08-21T13:37:40;32.00;42.00
10010;DHT22;5044;48.652;9.250;2022-08-21T13:40:10;32.20;42.10
10010;DHT22;5044;48.652;9.250;2022-08-21T13:42:42;31.70;38.20
10010;DHT22;5044;48.652;9.250;2022-08-21T13:45:15;32.00;41.70
10010;DHT22;5044;48.652;9.250;2022-08-21T13:47:45;32.00;38.40
10010;DHT22;5044;48.652;9.250;2022-08-21T13:50:15;31.70;38.60
10010;DHT22;5044;48.652;9.250;2022-08-21T13:52:50;31.80;40.60
10010;DHT22;5044;48.652;9.250;2022-08-21T13:55:20;32.30;43.60
10010;DHT22;5044;48.652;9.250;2022-08-21T13:57:58;32.50;42.70
10010;DHT22;5044;48.652;9.250;2022-08-21T14:00:27;32.70;44.80
10010;DHT22;5044;48.652;9.250;2022-08-21T14:03:00;32.40;41.70
10010;DHT22;5044;48.652;9.250;2022-08-21T14:05:32;31.50;38.90
10010;DHT22;5044;48.652;9.250;2022-08-21T14:08:04;31.20;38.70
10010;DHT22;5044;48.652;9.250;2022-08-21T14:10:31;31.40;41.70
10010;DHT22;5044;48.652;9.250;2022-08-21T14:13:05;32.20;45.50
10010;DHT22;5044;48.652;9.250;2022-08-21T14:15:34;32.50;43.40
10010;DHT22;5044;48.652;9.250;2022-08-21T14:18:09;32.50;41.70
10010;DHT22;5044;48.652;9.250;2022-08-21T14:20:40;31.90;39.10
10010;DHT22;5044;48.652;9.250;2022-08-21T14:23:07;31.70;38.90
10010;DHT22;5044;48.652;9.250;2022-08-21T14:25:39;31.20;39.20
10010;DHT22;5044;48.652;9.250;2022-08-21T14:28:18;31.40;41.40
10010;DHT22;5044;48.652;9.250;2022-08-21T14:30:47;31.50;40.70
10010;DHT22;5044;48.652;9.250;2022-08-21T14:33:21;31.70;41.20
10010;DHT22;5044;48.652;9.250;2022-08-21T14:35:48;31.40;39.90
10010;DHT22;5044;48.652;9.250;2022-08-21T14:38:17;31.20;39.70
10010;DHT22;5044;48.652;9.250;2022-08-21T14:40:47;31.00;40.10
10010;DHT22;5044;48.652;9.250;2022-08-21T14:43:17;31.30;40.60
10010;DHT22;5044;48.652;9.250;2022-08-21T14:45:44;31.40;41.00
10010;DHT22;5044;48.652;9.250;2022-08-21T14:48:11;31.20;39.50
10010;DHT22;5044;48.652;9.250;2022-08-21T14:50:39;31.70;42.60
10010;DHT22;5044;48.652;9.250;2022-08-21T14:53:06;31.30;39.70
10010;DHT22;5044;48.652;9.250;2022-08-21T14:55:35;31.10;40.40
10010;DHT22;5044;48.652;9.250;2022-08-21T14:58:24;30.80;40.40
10010;DHT22;5044;48.652;9.250;2022-08-21T15:00:52;31.20;41.40
10010;DHT22;5044;48.652;9.250;2022-08-21T15:03:20;30.80;40.60
10010;DHT22;5044;48.652;9.250;2022-08-21T15:05:48;30.60;40.00
10010;DHT22;5044;48.652;9.250;2022-08-21T15:08:15;31.00;43.50
10010;DHT22;5044;48.652;9.250;2022-08-21T15:10:43;31.40;44.20
10010;DHT22;5044;48.652;9.250;2022-08-21T15:13:10;30.90;40.40
10010;DHT22;5044;48.652;9.250;2022-08-21T15:15:43;31.10;42.30
10010;DHT22;5044;48.652;9.250;2022-08-21T15:18:10;31.40;46.90
10010;DHT22;5044;48.652;9.250;2022-08-21T15:20:38;31.60;46.70
10010;DHT22;5044;48.652;9.250;2022-08-21T15:23:06;31.70;45.20
10010;DHT22;5044;48.652;9.250;2022-08-21T15:25:33;31.60;46.30
10010;DHT22;5044;48.652;9.250;2022-08-21T15:28:00;31.50;45.40
10010;DHT22;5044;48.652;9.250;2022-08-21T15:30:29;31.50;44.70
10010;DHT22;5044;48.652;9.250;2022-08-21T15:32:58;31.30;45.30
10010;DHT22;5044;48.652;9.250;2022-08-21T15:35:25;30.80;42.30
10010;DHT22;5044;48.652;9.250;2022-08-21T15:37:52;31.10;47.40
10010;DHT22;5044;48.652;9.250;2022-08-21T15:40:19;31.20;46.80
10010;DHT22;5044;48.652;9.250;2022-08-21T15:42:46;31.00;45.30
10010;DHT22;5044;48.652;9.250;2022-08-21T15:45:14;31.20;47.30
10010;DHT22;5044;48.652;9.250;2022-08-21T15:47:44;31.10;47.30
10010;DHT22;5044;48.652;9.250;2022-08-21T15:50:13;31.00;47.90
10010;DHT22;5044;48.652;9.250;2022-08-21T15:52:40;30.80;46.30
10010;DHT22;5044;48.652;9.250;2022-08-21T15:55:08;30.70;46.00
10010;DHT22;5044;48.652;9.250;2022-08-21T15:57:36;30.50;43.20
10010;DHT22;5044;48.652;9.250;2022-08-21T16:00:07;30.40;46.20
10010;DHT22;5044;48.652;9.250;2022-08-21T16:02:39;30.30;47.40
10010;DHT22;5044;48.652;9.250;2022-08-21T16:05:09;30.20;48.30
10010;DHT22;5044;48.652;9.250;2022-08-21T16:07:39;29.80;45.90